WetterOnline ( https://www.wetteronline.de )

Wetter aktuell Lindtorf

Aktuelles Wetter: Genthin (39m)

6-stündlich | Neueste Meldungen
Ortszeit Temperatur Wetter
Do, 20.01. 7:00 1.6° C leicht bewölkt
Do, 20.01. 1:00 3.7° C bewölkt
Mi, 19.01. 19:00 4.1° C bedeckt
Mi, 19.01. 13:00 3.9° C bedeckt
Mi, 19.01. 7:00 4.3° C bedeckt
Mi, 19.01. 1:00 5.7° C bedeckt
Di, 18.01. 19:00 5.8° C bedeckt
Di, 18.01. 13:00 5.6° C bedeckt
Ortszeit Temperatur Wetter
Do, 20.01. 11:30 2.9° C wolkenlos
Do, 20.01. 11:20 2.9° C wolkenlos
Do, 20.01. 11:10 2.7° C fast wolkenlos
Do, 20.01. 11:00 2.2° C bewölkt
Do, 20.01. 10:50 2.2° C bewölkt
Do, 20.01. 10:40 2.3° C bedeckt
Do, 20.01. 10:30 2.1° C bedeckt
Do, 20.01. 10:00 1.9° C leicht bewölkt
Do, 20.01. 9:30 1.4° C leicht bewölkt
Do, 20.01. 9:00 1.4° C bewölkt
Do, 20.01. 8:30 1.4° C leicht bewölkt
Ortszeit Relative Feuchte Sichtweite
Do, 20.01. 7:00 75% 35 km
Do, 20.01. 1:00 86% 23 km
Mi, 19.01. 19:00 76% 40 km
Mi, 19.01. 13:00 80% 40 km
Mi, 19.01. 7:00 86% 16 km
Mi, 19.01. 1:00 80% 24 km
Di, 18.01. 19:00 86% 35 km
Di, 18.01. 13:00 82% 35 km
Ortszeit Relative Feuchte Sichtweite
Do, 20.01. 11:30 63% 27 km
Do, 20.01. 11:20 63% -
Do, 20.01. 11:10 63% -
Do, 20.01. 11:00 66% 27 km
Do, 20.01. 10:50 66% -
Do, 20.01. 10:40 65% -
Do, 20.01. 10:30 66% 30 km
Do, 20.01. 10:00 67% 27 km
Do, 20.01. 9:30 70% 30 km
Do, 20.01. 9:00 70% 30 km
Do, 20.01. 8:30 68% 30 km
Ortszeit Niederschlagsmenge Niederschlagsart
Do, 20.01. 7:00 1 l/m2 in 12 Std. Schnee, Regen
Do, 20.01. 1:00 1 l/m2 in 6 Std. Regen
Mi, 19.01. 19:00 0.0 l/m2 in 12 Std. -
Mi, 19.01. 13:00 0.0 l/m2 in 6 Std. -
Mi, 19.01. 7:00 0.0 l/m2 in 12 Std. -
Mi, 19.01. 1:00 0.0 l/m2 in 6 Std. -
Di, 18.01. 19:00 0.0 l/m2 in 12 Std. -
Di, 18.01. 13:00 0.0 l/m2 in 6 Std. -
Ortszeit Niederschlagsmenge Niederschlagsart
Do, 20.01. 11:30 0.0 l/m2 in 1 Std. -
Do, 20.01. 11:20 keine Meldung -
Do, 20.01. 11:10 keine Meldung -
Do, 20.01. 11:00 0.0 l/m2 in 1 Std. -
Do, 20.01. 10:50 keine Meldung -
Do, 20.01. 10:40 keine Meldung -
Do, 20.01. 10:30 0.0 l/m2 in 1 Std. -
Do, 20.01. 10:00 0.0 l/m2 in 1 Std. -
Do, 20.01. 9:30 0.0 l/m2 in 1 Std. -
Do, 20.01. 9:00 0.0 l/m2 in 1 Std. -
Do, 20.01. 8:30 0.0 l/m2 in 1 Std. -
Ortszeit Stärke Spitze Richtung
km/h Bft. km/h Grad Sektor
Do, 20.01. 7:00 29 5 65 310° NW
Do, 20.01. 1:00 18 3 50 280° W
Mi, 19.01. 19:00 15 3 33 240° SW
Mi, 19.01. 13:00 15 3 28 220° SW
Mi, 19.01. 7:00 7 2 18 260° W
Mi, 19.01. 1:00 7 2 25 250° W
Di, 18.01. 19:00 7 2 22 240° SW
Di, 18.01. 13:00 7 2 14 270° W
Ortszeit Stärke Spitze Richtung
km/h Bft. km/h Grad Sektor
Do, 20.01. 11:30 25 4 43 290° W
Do, 20.01. 11:20 25 4 - 290° W
Do, 20.01. 11:10 24 4 - 290° W
Do, 20.01. 11:00 25 4 43 290° W
Do, 20.01. 10:50 25 4 - 290° W
Do, 20.01. 10:40 22 4 - 300° NW
Do, 20.01. 10:30 24 4 39 300° NW
Do, 20.01. 10:00 20 4 43 290° W
Do, 20.01. 9:30 18 3 40 290° W
Do, 20.01. 9:00 18 3 50 300° NW
Do, 20.01. 8:30 26 4 50 310° NW
Ortszeit Untergrenze Bedeckung Gattung
total tief tief mittel hoch
Do, 20.01. 7:00 2100 m 2/8 1/8 - - -
Do, 20.01. 1:00 1500 m 7/8 7/8 - - -
Mi, 19.01. 19:00 630 m 8/8 8/8 - - -
Mi, 19.01. 13:00 390 m 8/8 8/8 - - -
Mi, 19.01. 7:00 360 m 8/8 8/8 - - -
Mi, 19.01. 1:00 510 m 8/8 8/8 - - -
Di, 18.01. 19:00 660 m 8/8 8/8 - - -
Di, 18.01. 13:00 540 m 8/8 8/8 - - -
Ortszeit Bedeckungsgrad in Achtel und Wolkenuntergrenze
Do, 20.01. 11:30 keine Wolken
Do, 20.01. 11:20 keine Wolken
Do, 20.01. 11:10 1(1380m)
Do, 20.01. 11:00 7(1350m)
Do, 20.01. 10:50 7(1350m)
Do, 20.01. 10:40 3(1230m) 8(1440m)
Do, 20.01. 10:30 1(1080m) 8(1470m)
Do, 20.01. 10:00 4(1500m)
Do, 20.01. 9:30 2(1290m) 4(1500m)
Do, 20.01. 9:00 5(1080m) 7(1350m) 7(1500m)
Do, 20.01. 8:30 2(1200m)
Ortszeit Luftdruck NN (hPa) Tendenz (hPa in 3 Std.)
Do, 20.01. 7:00 1014 + 0,3
Do, 20.01. 1:00 1014 + 0,1
Mi, 19.01. 19:00 1016 - 3,1
Mi, 19.01. 13:00 1022 - 2,9
Mi, 19.01. 7:00 1028 - 2,6
Mi, 19.01. 1:00 1034 - 1,6
Di, 18.01. 19:00 1036 - 0,3
Di, 18.01. 13:00 1036 + 0,1
Ortszeit Luftdruck NN (hPa) Tendenz (hPa in 3 Std.)
Do, 20.01. 11:30 1018 + 1,4
Do, 20.01. 11:20 1018 keine Meldung
Do, 20.01. 11:10 1018 keine Meldung
Do, 20.01. 11:00 1018 + 2,2
Do, 20.01. 10:50 1018 keine Meldung
Do, 20.01. 10:40 1018 keine Meldung
Do, 20.01. 10:30 1018 + 2,8
Do, 20.01. 10:00 1018 + 3,5
Do, 20.01. 9:30 1017 + 3,0
Do, 20.01. 9:00 1017 + 2,9
Do, 20.01. 8:30 1016 + 3,1
Ortszeit Schneehöhe (cm)
Do, 20.01. 7:00 0
Do, 20.01. 1:00 0
Mi, 19.01. 19:00 0
Mi, 19.01. 13:00 0
Mi, 19.01. 7:00 0
Mi, 19.01. 1:00 0
Di, 18.01. 19:00 0
Di, 18.01. 13:00 0
Ortszeit Schneehöhe (cm)
Do, 20.01. 11:30 0
Do, 20.01. 11:20 0
Do, 20.01. 11:10 0
Do, 20.01. 11:00 0
Do, 20.01. 10:50 0
Do, 20.01. 10:40 0
Do, 20.01. 10:30 0
Do, 20.01. 10:00 0
Do, 20.01. 9:30 0
Do, 20.01. 9:00 0
Do, 20.01. 8:30 0
Link zu dieser Seite / Seite empfehlen

Das Wetter in ...